sensor_id;sensor_type;location;lat;lon;timestamp;P1;durP1;ratioP1;P2;durP2;ratioP2
54171;SDS011;40076;52.354;4.970;2022-12-11T00:01:44;104.40;;;38.65;;
54171;SDS011;40076;52.354;4.970;2022-12-11T00:04:09;104.50;;;38.25;;
54171;SDS011;40076;52.354;4.970;2022-12-11T00:06:34;96.15;;;36.97;;
54171;SDS011;40076;52.354;4.970;2022-12-11T00:09:00;97.18;;;36.78;;
54171;SDS011;40076;52.354;4.970;2022-12-11T00:11:25;96.45;;;35.53;;
54171;SDS011;40076;52.354;4.970;2022-12-11T00:13:51;95.18;;;38.03;;
54171;SDS011;40076;52.354;4.970;2022-12-11T00:16:16;89.63;;;34.38;;
54171;SDS011;40076;52.354;4.970;2022-12-11T00:18:42;86.75;;;35.20;;
54171;SDS011;40076;52.354;4.970;2022-12-11T00:21:09;94.22;;;36.95;;
54171;SDS011;40076;52.354;4.970;2022-12-11T00:23:37;88.88;;;35.75;;
54171;SDS011;40076;52.354;4.970;2022-12-11T00:26:06;87.07;;;34.70;;
54171;SDS011;40076;52.354;4.970;2022-12-11T00:28:33;89.93;;;34.30;;
54171;SDS011;40076;52.354;4.970;2022-12-11T00:30:58;80.65;;;32.22;;
54171;SDS011;40076;52.354;4.970;2022-12-11T00:33:26;84.50;;;34.38;;
54171;SDS011;40076;52.354;4.970;2022-12-11T00:35:52;79.15;;;32.30;;
54171;SDS011;40076;52.354;4.970;2022-12-11T00:38:18;81.30;;;32.85;;
54171;SDS011;40076;52.354;4.970;2022-12-11T00:40:45;80.43;;;34.05;;
54171;SDS011;40076;52.354;4.970;2022-12-11T00:43:11;87.90;;;34.58;;
54171;SDS011;40076;52.354;4.970;2022-12-11T00:45:37;89.28;;;34.30;;
54171;SDS011;40076;52.354;4.970;2022-12-11T00:48:04;88.53;;;36.33;;
54171;SDS011;40076;52.354;4.970;2022-12-11T00:50:30;92.55;;;36.05;;
54171;SDS011;40076;52.354;4.970;2022-12-11T00:52:56;85.45;;;35.33;;
54171;SDS011;40076;52.354;4.970;2022-12-11T00:55:21;79.45;;;33.33;;
54171;SDS011;40076;52.354;4.970;2022-12-11T00:57:46;89.95;;;35.10;;
54171;SDS011;40076;52.354;4.970;2022-12-11T01:00:15;93.50;;;36.17;;
54171;SDS011;40076;52.354;4.970;2022-12-11T01:02:40;90.93;;;36.40;;
54171;SDS011;40076;52.354;4.970;2022-12-11T01:05:05;88.78;;;37.15;;
54171;SDS011;40076;52.354;4.970;2022-12-11T01:07:31;92.35;;;36.25;;
54171;SDS011;40076;52.354;4.970;2022-12-11T01:09:56;85.93;;;36.40;;
54171;SDS011;40076;52.354;4.970;2022-12-11T01:12:40;88.95;;;36.75;;
54171;SDS011;40076;52.354;4.970;2022-12-11T01:15:06;87.90;;;37.15;;
54171;SDS011;40076;52.354;4.970;2022-12-11T01:17:31;91.13;;;37.50;;
54171;SDS011;40076;52.354;4.970;2022-12-11T01:19:56;87.15;;;35.47;;
54171;SDS011;40076;52.354;4.970;2022-12-11T01:22:22;100.38;;;39.88;;
54171;SDS011;40076;52.354;4.970;2022-12-11T01:24:47;92.82;;;39.00;;
54171;SDS011;40076;52.354;4.970;2022-12-11T01:27:13;93.95;;;39.60;;
54171;SDS011;40076;52.354;4.970;2022-12-11T01:29:38;89.63;;;38.17;;
54171;SDS011;40076;52.354;4.970;2022-12-11T01:32:04;90.90;;;37.13;;
54171;SDS011;40076;52.354;4.970;2022-12-11T01:34:29;96.72;;;39.50;;
54171;SDS011;40076;52.354;4.970;2022-12-11T01:36:56;93.10;;;37.90;;
54171;SDS011;40076;52.354;4.970;2022-12-11T01:39:21;98.63;;;38.40;;
54171;SDS011;40076;52.354;4.970;2022-12-11T01:41:47;97.93;;;38.67;;
54171;SDS011;40076;52.354;4.970;2022-12-11T01:46:40;100.43;;;39.08;;
54171;SDS011;40076;52.354;4.970;2022-12-11T01:49:07;96.85;;;40.78;;
54171;SDS011;40076;52.354;4.970;2022-12-11T01:51:37;93.30;;;39.35;;
54171;SDS011;40076;52.354;4.970;2022-12-11T01:54:07;95.20;;;39.85;;
54171;SDS011;40076;52.354;4.970;2022-12-11T01:56:35;85.90;;;38.72;;
54171;SDS011;40076;52.354;4.970;2022-12-11T01:59:04;88.63;;;40.10;;
54171;SDS011;40076;52.354;4.970;2022-12-11T02:01:45;87.32;;;37.17;;
54171;SDS011;40076;52.354;4.970;2022-12-11T02:04:15;69.50;;;30.85;;
54171;SDS011;40076;52.354;4.970;2022-12-11T02:06:43;82.35;;;37.38;;
54171;SDS011;40076;52.354;4.970;2022-12-11T02:09:12;84.25;;;39.60;;
54171;SDS011;40076;52.354;4.970;2022-12-11T02:11:54;84.22;;;39.88;;
54171;SDS011;40076;52.354;4.970;2022-12-11T02:25:23;68.53;;;34.90;;
54171;SDS011;40076;52.354;4.970;2022-12-11T02:28:12;62.88;;;34.88;;
54171;SDS011;40076;52.354;4.970;2022-12-11T02:30:40;62.30;;;32.60;;
54171;SDS011;40076;52.354;4.970;2022-12-11T02:33:08;60.95;;;34.00;;
54171;SDS011;40076;52.354;4.970;2022-12-11T02:35:37;61.00;;;32.67;;
54171;SDS011;40076;52.354;4.970;2022-12-11T02:38:25;63.38;;;34.67;;
54171;SDS011;40076;52.354;4.970;2022-12-11T02:40:55;59.00;;;32.42;;
54171;SDS011;40076;52.354;4.970;2022-12-11T02:43:23;64.78;;;34.25;;
54171;SDS011;40076;52.354;4.970;2022-12-11T02:45:49;64.47;;;34.63;;
54171;SDS011;40076;52.354;4.970;2022-12-11T02:48:16;61.03;;;33.28;;
54171;SDS011;40076;52.354;4.970;2022-12-11T02:50:47;60.63;;;33.95;;
54171;SDS011;40076;52.354;4.970;2022-12-11T02:53:15;57.33;;;31.70;;
54171;SDS011;40076;52.354;4.970;2022-12-11T02:55:44;58.13;;;33.00;;
54171;SDS011;40076;52.354;4.970;2022-12-11T02:58:12;58.28;;;32.67;;
54171;SDS011;40076;52.354;4.970;2022-12-11T03:00:43;60.60;;;32.75;;
54171;SDS011;40076;52.354;4.970;2022-12-11T03:03:09;56.90;;;31.60;;
54171;SDS011;40076;52.354;4.970;2022-12-11T03:05:35;55.25;;;31.92;;
54171;SDS011;40076;52.354;4.970;2022-12-11T03:08:00;55.88;;;32.17;;
54171;SDS011;40076;52.354;4.970;2022-12-11T03:10:26;52.80;;;30.20;;
54171;SDS011;40076;52.354;4.970;2022-12-11T03:12:52;58.00;;;31.77;;
54171;SDS011;40076;52.354;4.970;2022-12-11T03:15:20;56.97;;;32.47;;
54171;SDS011;40076;52.354;4.970;2022-12-11T03:18:13;60.15;;;31.38;;
54171;SDS011;40076;52.354;4.970;2022-12-11T03:20:58;50.28;;;30.20;;
54171;SDS011;40076;52.354;4.970;2022-12-11T03:23:49;50.25;;;29.77;;
54171;SDS011;40076;52.354;4.970;2022-12-11T03:26:21;51.50;;;29.60;;
54171;SDS011;40076;52.354;4.970;2022-12-11T03:28:55;52.70;;;30.20;;
54171;SDS011;40076;52.354;4.970;2022-12-11T03:34:11;52.30;;;29.60;;
54171;SDS011;40076;52.354;4.970;2022-12-11T03:36:42;46.28;;;26.83;;
54171;SDS011;40076;52.354;4.970;2022-12-11T03:39:14;48.70;;;28.77;;
54171;SDS011;40076;52.354;4.970;2022-12-11T03:41:43;36.85;;;22.08;;
54171;SDS011;40076;52.354;4.970;2022-12-11T03:44:10;44.33;;;27.45;;
54171;SDS011;40076;52.354;4.970;2022-12-11T03:46:37;42.97;;;26.60;;
54171;SDS011;40076;52.354;4.970;2022-12-11T03:49:06;49.05;;;27.42;;
54171;SDS011;40076;52.354;4.970;2022-12-11T03:51:37;44.87;;;26.73;;
54171;SDS011;40076;52.354;4.970;2022-12-11T03:54:03;43.55;;;26.48;;
54171;SDS011;40076;52.354;4.970;2022-12-11T03:56:30;47.22;;;26.98;;
54171;SDS011;40076;52.354;4.970;2022-12-11T03:58:58;50.60;;;28.85;;
54171;SDS011;40076;52.354;4.970;2022-12-11T04:01:23;43.13;;;25.90;;
54171;SDS011;40076;52.354;4.970;2022-12-11T04:03:48;48.72;;;28.15;;
54171;SDS011;40076;52.354;4.970;2022-12-11T04:06:14;42.95;;;26.27;;
54171;SDS011;40076;52.354;4.970;2022-12-11T04:08:39;43.50;;;25.98;;
54171;SDS011;40076;52.354;4.970;2022-12-11T04:11:04;41.53;;;25.98;;
54171;SDS011;40076;52.354;4.970;2022-12-11T04:13:48;46.50;;;25.38;;
54171;SDS011;40076;52.354;4.970;2022-12-11T04:16:32;46.75;;;27.08;;
54171;SDS011;40076;52.354;4.970;2022-12-11T04:18:58;41.53;;;25.20;;
54171;SDS011;40076;52.354;4.970;2022-12-11T04:21:42;42.78;;;24.55;;
54171;SDS011;40076;52.354;4.970;2022-12-11T04:24:26;42.53;;;24.23;;
54171;SDS011;40076;52.354;4.970;2022-12-11T04:26:51;41.00;;;24.23;;
54171;SDS011;40076;52.354;4.970;2022-12-11T04:29:16;41.63;;;24.23;;
54171;SDS011;40076;52.354;4.970;2022-12-11T04:31:41;41.42;;;23.75;;
54171;SDS011;40076;52.354;4.970;2022-12-11T04:34:07;37.35;;;22.58;;
54171;SDS011;40076;52.354;4.970;2022-12-11T04:36:33;38.60;;;23.35;;
54171;SDS011;40076;52.354;4.970;2022-12-11T04:38:58;38.85;;;23.15;;
54171;SDS011;40076;52.354;4.970;2022-12-11T04:41:23;38.40;;;22.70;;
54171;SDS011;40076;52.354;4.970;2022-12-11T04:43:48;36.13;;;22.70;;
54171;SDS011;40076;52.354;4.970;2022-12-11T04:46:15;34.72;;;21.52;;
54171;SDS011;40076;52.354;4.970;2022-12-11T04:48:43;39.15;;;23.25;;
54171;SDS011;40076;52.354;4.970;2022-12-11T04:51:09;38.75;;;22.10;;
54171;SDS011;40076;52.354;4.970;2022-12-11T04:53:35;35.00;;;21.52;;
54171;SDS011;40076;52.354;4.970;2022-12-11T04:56:03;38.72;;;22.02;;
54171;SDS011;40076;52.354;4.970;2022-12-11T04:58:30;36.28;;;20.75;;
54171;SDS011;40076;52.354;4.970;2022-12-11T05:00:55;36.28;;;22.13;;
54171;SDS011;40076;52.354;4.970;2022-12-11T05:03:20;38.75;;;21.52;;
54171;SDS011;40076;52.354;4.970;2022-12-11T05:05:49;36.80;;;21.70;;
54171;SDS011;40076;52.354;4.970;2022-12-11T05:08:16;36.78;;;22.27;;
54171;SDS011;40076;52.354;4.970;2022-12-11T05:10:55;38.00;;;21.42;;
54171;SDS011;40076;52.354;4.970;2022-12-11T05:13:25;37.90;;;21.85;;
54171;SDS011;40076;52.354;4.970;2022-12-11T05:15:51;36.30;;;21.55;;
54171;SDS011;40076;52.354;4.970;2022-12-11T05:18:16;40.00;;;23.13;;
54171;SDS011;40076;52.354;4.970;2022-12-11T05:20:41;34.88;;;20.02;;
54171;SDS011;40076;52.354;4.970;2022-12-11T05:23:07;39.70;;;22.40;;
54171;SDS011;40076;52.354;4.970;2022-12-11T05:25:32;35.70;;;20.85;;
54171;SDS011;40076;52.354;4.970;2022-12-11T05:27:57;43.72;;;22.30;;
54171;SDS011;40076;52.354;4.970;2022-12-11T05:30:22;38.78;;;21.45;;
54171;SDS011;40076;52.354;4.970;2022-12-11T05:32:48;41.00;;;22.65;;
54171;SDS011;40076;52.354;4.970;2022-12-11T05:35:13;42.15;;;22.35;;
54171;SDS011;40076;52.354;4.970;2022-12-11T05:37:38;41.45;;;24.13;;
54171;SDS011;40076;52.354;4.970;2022-12-11T05:40:05;40.50;;;24.60;;
54171;SDS011;40076;52.354;4.970;2022-12-11T05:42:31;43.95;;;23.08;;
54171;SDS011;40076;52.354;4.970;2022-12-11T05:44:57;41.55;;;23.70;;
54171;SDS011;40076;52.354;4.970;2022-12-11T05:47:22;43.78;;;24.17;;
54171;SDS011;40076;52.354;4.970;2022-12-11T05:49:48;41.20;;;23.60;;
54171;SDS011;40076;52.354;4.970;2022-12-11T05:52:13;43.75;;;23.65;;
54171;SDS011;40076;52.354;4.970;2022-12-11T05:54:40;44.60;;;25.00;;
54171;SDS011;40076;52.354;4.970;2022-12-11T05:57:05;43.00;;;24.60;;
54171;SDS011;40076;52.354;4.970;2022-12-11T05:59:31;44.33;;;24.75;;
54171;SDS011;40076;52.354;4.970;2022-12-11T06:01:56;46.47;;;24.63;;
54171;SDS011;40076;52.354;4.970;2022-12-11T06:04:21;44.88;;;26.00;;
54171;SDS011;40076;52.354;4.970;2022-12-11T06:06:47;43.97;;;25.27;;
54171;SDS011;40076;52.354;4.970;2022-12-11T06:09:13;45.65;;;24.85;;
54171;SDS011;40076;52.354;4.970;2022-12-11T06:11:39;44.28;;;24.90;;
54171;SDS011;40076;52.354;4.970;2022-12-11T06:14:05;46.88;;;25.83;;
54171;SDS011;40076;52.354;4.970;2022-12-11T06:16:31;47.92;;;26.38;;
54171;SDS011;40076;52.354;4.970;2022-12-11T06:18:56;47.97;;;26.60;;
54171;SDS011;40076;52.354;4.970;2022-12-11T06:21:23;43.03;;;24.50;;
54171;SDS011;40076;52.354;4.970;2022-12-11T06:23:51;43.45;;;25.40;;
54171;SDS011;40076;52.354;4.970;2022-12-11T06:26:18;44.25;;;24.77;;
54171;SDS011;40076;52.354;4.970;2022-12-11T06:28:44;46.42;;;26.33;;
54171;SDS011;40076;52.354;4.970;2022-12-11T06:31:09;43.97;;;24.17;;
54171;SDS011;40076;52.354;4.970;2022-12-11T06:33:35;43.45;;;23.98;;
54171;SDS011;40076;52.354;4.970;2022-12-11T06:36:02;43.17;;;24.58;;
54171;SDS011;40076;52.354;4.970;2022-12-11T06:38:31;40.25;;;23.40;;
54171;SDS011;40076;52.354;4.970;2022-12-11T06:40:57;42.70;;;23.73;;
54171;SDS011;40076;52.354;4.970;2022-12-11T06:43:24;44.28;;;24.48;;
54171;SDS011;40076;52.354;4.970;2022-12-11T06:45:49;42.13;;;24.55;;
54171;SDS011;40076;52.354;4.970;2022-12-11T06:48:15;45.92;;;25.33;;
54171;SDS011;40076;52.354;4.970;2022-12-11T06:50:41;43.35;;;24.85;;
54171;SDS011;40076;52.354;4.970;2022-12-11T06:53:06;42.75;;;24.15;;
54171;SDS011;40076;52.354;4.970;2022-12-11T06:55:35;44.22;;;26.27;;
54171;SDS011;40076;52.354;4.970;2022-12-11T06:58:00;43.88;;;24.95;;
54171;SDS011;40076;52.354;4.970;2022-12-11T07:00:25;43.17;;;24.50;;
54171;SDS011;40076;52.354;4.970;2022-12-11T07:02:51;41.40;;;24.55;;
54171;SDS011;40076;52.354;4.970;2022-12-11T07:05:16;42.80;;;26.10;;
54171;SDS011;40076;52.354;4.970;2022-12-11T07:07:42;46.88;;;25.90;;
54171;SDS011;40076;52.354;4.970;2022-12-11T07:10:07;40.70;;;24.98;;
54171;SDS011;40076;52.354;4.970;2022-12-11T07:12:33;38.75;;;23.80;;
54171;SDS011;40076;52.354;4.970;2022-12-11T07:14:59;44.03;;;25.77;;
54171;SDS011;40076;52.354;4.970;2022-12-11T07:17:24;40.97;;;22.92;;
54171;SDS011;40076;52.354;4.970;2022-12-11T07:19:49;41.58;;;23.83;;
54171;SDS011;40076;52.354;4.970;2022-12-11T07:22:15;40.53;;;24.13;;
54171;SDS011;40076;52.354;4.970;2022-12-11T07:24:40;43.17;;;25.13;;
54171;SDS011;40076;52.354;4.970;2022-12-11T07:27:05;44.28;;;24.88;;
54171;SDS011;40076;52.354;4.970;2022-12-11T07:29:31;44.83;;;24.83;;
54171;SDS011;40076;52.354;4.970;2022-12-11T07:31:56;43.67;;;23.48;;
54171;SDS011;40076;52.354;4.970;2022-12-11T07:34:22;39.88;;;22.58;;
54171;SDS011;40076;52.354;4.970;2022-12-11T07:36:47;42.00;;;24.05;;
54171;SDS011;40076;52.354;4.970;2022-12-11T07:39:12;40.80;;;22.35;;
54171;SDS011;40076;52.354;4.970;2022-12-11T07:41:37;37.58;;;22.10;;
54171;SDS011;40076;52.354;4.970;2022-12-11T07:44:03;39.38;;;22.63;;
54171;SDS011;40076;52.354;4.970;2022-12-11T07:46:29;41.47;;;23.65;;
54171;SDS011;40076;52.354;4.970;2022-12-11T07:48:56;36.78;;;22.35;;
54171;SDS011;40076;52.354;4.970;2022-12-11T07:51:25;36.95;;;21.40;;
54171;SDS011;40076;52.354;4.970;2022-12-11T07:53:53;40.28;;;21.00;;
54171;SDS011;40076;52.354;4.970;2022-12-11T07:56:20;35.50;;;20.20;;
54171;SDS011;40076;52.354;4.970;2022-12-11T07:58:45;35.90;;;21.10;;
54171;SDS011;40076;52.354;4.970;2022-12-11T08:01:12;36.65;;;20.65;;
54171;SDS011;40076;52.354;4.970;2022-12-11T08:03:40;34.95;;;20.10;;
54171;SDS011;40076;52.354;4.970;2022-12-11T08:06:06;35.85;;;20.17;;
54171;SDS011;40076;52.354;4.970;2022-12-11T08:08:31;39.05;;;21.98;;
54171;SDS011;40076;52.354;4.970;2022-12-11T08:11:00;36.25;;;21.25;;
54171;SDS011;40076;52.354;4.970;2022-12-11T08:13:30;29.60;;;16.70;;
54171;SDS011;40076;52.354;4.970;2022-12-11T08:15:55;39.05;;;21.67;;
54171;SDS011;40076;52.354;4.970;2022-12-11T08:18:21;39.63;;;21.77;;
54171;SDS011;40076;52.354;4.970;2022-12-11T08:20:46;38.97;;;21.73;;
54171;SDS011;40076;52.354;4.970;2022-12-11T08:23:11;39.08;;;22.40;;
54171;SDS011;40076;52.354;4.970;2022-12-11T08:25:37;40.58;;;21.48;;
54171;SDS011;40076;52.354;4.970;2022-12-11T08:28:02;42.30;;;22.27;;
54171;SDS011;40076;52.354;4.970;2022-12-11T08:30:27;39.33;;;21.90;;
54171;SDS011;40076;52.354;4.970;2022-12-11T08:32:53;42.60;;;23.20;;
54171;SDS011;40076;52.354;4.970;2022-12-11T08:35:18;40.80;;;22.70;;
54171;SDS011;40076;52.354;4.970;2022-12-11T08:37:43;39.88;;;22.58;;
54171;SDS011;40076;52.354;4.970;2022-12-11T08:40:09;40.20;;;22.77;;
54171;SDS011;40076;52.354;4.970;2022-12-11T08:42:36;43.50;;;22.33;;
54171;SDS011;40076;52.354;4.970;2022-12-11T08:45:01;40.17;;;22.17;;
54171;SDS011;40076;52.354;4.970;2022-12-11T08:47:27;42.72;;;22.85;;
54171;SDS011;40076;52.354;4.970;2022-12-11T08:49:52;39.95;;;22.33;;
54171;SDS011;40076;52.354;4.970;2022-12-11T08:52:17;41.70;;;22.35;;
54171;SDS011;40076;52.354;4.970;2022-12-11T08:54:43;44.15;;;23.23;;
54171;SDS011;40076;52.354;4.970;2022-12-11T08:57:08;43.55;;;24.15;;
54171;SDS011;40076;52.354;4.970;2022-12-11T08:59:33;41.60;;;22.63;;
54171;SDS011;40076;52.354;4.970;2022-12-11T09:01:59;42.58;;;23.73;;
54171;SDS011;40076;52.354;4.970;2022-12-11T09:04:24;44.80;;;23.98;;
54171;SDS011;40076;52.354;4.970;2022-12-11T09:06:50;44.42;;;23.25;;
54171;SDS011;40076;52.354;4.970;2022-12-11T09:09:15;44.45;;;23.42;;
54171;SDS011;40076;52.354;4.970;2022-12-11T09:11:40;46.92;;;24.30;;
54171;SDS011;40076;52.354;4.970;2022-12-11T09:14:06;45.70;;;24.90;;
54171;SDS011;40076;52.354;4.970;2022-12-11T09:16:32;43.63;;;23.63;;
54171;SDS011;40076;52.354;4.970;2022-12-11T09:18:58;44.05;;;23.38;;
54171;SDS011;40076;52.354;4.970;2022-12-11T09:21:27;44.53;;;24.08;;
54171;SDS011;40076;52.354;4.970;2022-12-11T09:23:55;39.20;;;23.60;;
54171;SDS011;40076;52.354;4.970;2022-12-11T09:26:23;40.70;;;23.45;;
54171;SDS011;40076;52.354;4.970;2022-12-11T09:28:49;41.03;;;23.42;;
54171;SDS011;40076;52.354;4.970;2022-12-11T09:31:18;40.88;;;23.10;;
54171;SDS011;40076;52.354;4.970;2022-12-11T09:33:47;42.03;;;24.42;;
54171;SDS011;40076;52.354;4.970;2022-12-11T09:36:13;38.28;;;24.00;;
54171;SDS011;40076;52.354;4.970;2022-12-11T09:38:39;38.78;;;23.50;;
54171;SDS011;40076;52.354;4.970;2022-12-11T09:43:49;40.13;;;22.45;;
54171;SDS011;40076;52.354;4.970;2022-12-11T09:46:24;40.90;;;23.05;;
54171;SDS011;40076;52.354;4.970;2022-12-11T09:48:50;42.28;;;24.52;;
54171;SDS011;40076;52.354;4.970;2022-12-11T09:51:20;37.83;;;22.65;;
54171;SDS011;40076;52.354;4.970;2022-12-11T09:53:48;39.92;;;23.10;;
54171;SDS011;40076;52.354;4.970;2022-12-11T10:01:37;24.45;;;13.98;;
54171;SDS011;40076;52.354;4.970;2022-12-11T10:18:17;23.63;;;14.50;;
54171;SDS011;40076;52.354;4.970;2022-12-11T10:20:47;27.42;;;15.52;;
54171;SDS011;40076;52.354;4.970;2022-12-11T10:23:29;30.20;;;17.92;;
54171;SDS011;40076;52.354;4.970;2022-12-11T10:28:42;39.35;;;23.95;;
54171;SDS011;40076;52.354;4.970;2022-12-11T10:31:18;41.00;;;23.77;;
54171;SDS011;40076;52.354;4.970;2022-12-11T10:34:01;34.65;;;19.17;;
54171;SDS011;40076;52.354;4.970;2022-12-11T10:36:34;40.35;;;24.42;;
54171;SDS011;40076;52.354;4.970;2022-12-11T10:39:09;43.20;;;23.98;;
54171;SDS011;40076;52.354;4.970;2022-12-11T10:41:39;40.58;;;23.98;;
54171;SDS011;40076;52.354;4.970;2022-12-11T10:51:56;40.95;;;24.50;;
54171;SDS011;40076;52.354;4.970;2022-12-11T10:54:35;39.17;;;24.23;;
54171;SDS011;40076;52.354;4.970;2022-12-11T10:57:03;40.35;;;24.50;;
54171;SDS011;40076;52.354;4.970;2022-12-11T10:59:37;44.40;;;25.45;;
54171;SDS011;40076;52.354;4.970;2022-12-11T11:02:04;39.58;;;24.38;;
54171;SDS011;40076;52.354;4.970;2022-12-11T11:04:35;42.40;;;25.42;;
54171;SDS011;40076;52.354;4.970;2022-12-11T11:07:13;42.63;;;25.25;;
54171;SDS011;40076;52.354;4.970;2022-12-11T11:09:42;39.42;;;24.08;;
54171;SDS011;40076;52.354;4.970;2022-12-11T11:12:18;41.75;;;24.38;;
54171;SDS011;40076;52.354;4.970;2022-12-11T11:15:02;42.10;;;24.92;;
54171;SDS011;40076;52.354;4.970;2022-12-11T11:17:49;38.95;;;24.90;;
54171;SDS011;40076;52.354;4.970;2022-12-11T11:20:18;42.08;;;25.02;;
54171;SDS011;40076;52.354;4.970;2022-12-11T11:22:48;40.75;;;25.02;;
54171;SDS011;40076;52.354;4.970;2022-12-11T11:25:17;38.50;;;23.40;;
54171;SDS011;40076;52.354;4.970;2022-12-11T11:27:44;39.50;;;22.92;;
54171;SDS011;40076;52.354;4.970;2022-12-11T11:32:55;39.08;;;23.00;;
54171;SDS011;40076;52.354;4.970;2022-12-11T11:35:25;40.50;;;23.92;;
54171;SDS011;40076;52.354;4.970;2022-12-11T11:43:16;37.05;;;23.23;;
54171;SDS011;40076;52.354;4.970;2022-12-11T11:46:00;42.15;;;24.45;;
54171;SDS011;40076;52.354;4.970;2022-12-11T11:51:10;38.40;;;23.17;;
54171;SDS011;40076;52.354;4.970;2022-12-11T11:53:39;41.20;;;24.10;;
54171;SDS011;40076;52.354;4.970;2022-12-11T11:56:22;43.40;;;25.17;;
54171;SDS011;40076;52.354;4.970;2022-12-11T11:58:53;42.13;;;24.15;;
54171;SDS011;40076;52.354;4.970;2022-12-11T12:01:40;44.38;;;26.25;;
54171;SDS011;40076;52.354;4.970;2022-12-11T12:04:07;43.58;;;26.33;;
54171;SDS011;40076;52.354;4.970;2022-12-11T12:18:08;45.33;;;27.27;;
54171;SDS011;40076;52.354;4.970;2022-12-11T12:26:13;43.92;;;25.55;;
54171;SDS011;40076;52.354;4.970;2022-12-11T12:28:43;42.15;;;25.60;;
54171;SDS011;40076;52.354;4.970;2022-12-11T12:31:20;32.23;;;20.00;;
54171;SDS011;40076;52.354;4.970;2022-12-11T12:39:19;41.55;;;25.23;;
54171;SDS011;40076;52.354;4.970;2022-12-11T12:42:15;42.30;;;24.15;;
54171;SDS011;40076;52.354;4.970;2022-12-11T12:47:36;41.75;;;24.08;;
54171;SDS011;40076;52.354;4.970;2022-12-11T12:50:03;42.33;;;23.90;;
54171;SDS011;40076;52.354;4.970;2022-12-11T12:52:34;40.75;;;24.45;;
54171;SDS011;40076;52.354;4.970;2022-12-11T12:55:04;41.08;;;23.65;;
54171;SDS011;40076;52.354;4.970;2022-12-11T12:57:52;42.10;;;23.48;;
54171;SDS011;40076;52.354;4.970;2022-12-11T13:00:35;38.40;;;23.55;;
54171;SDS011;40076;52.354;4.970;2022-12-11T13:03:24;38.03;;;22.23;;
54171;SDS011;40076;52.354;4.970;2022-12-11T13:05:58;40.65;;;23.42;;
54171;SDS011;40076;52.354;4.970;2022-12-11T13:08:27;37.77;;;22.23;;
54171;SDS011;40076;52.354;4.970;2022-12-11T13:11:05;39.53;;;21.63;;
54171;SDS011;40076;52.354;4.970;2022-12-11T13:16:44;42.80;;;22.65;;
54171;SDS011;40076;52.354;4.970;2022-12-11T13:18:58;36.03;;;20.63;;
54171;SDS011;40076;52.354;4.970;2022-12-11T13:21:36;37.40;;;22.45;;
54171;SDS011;40076;52.354;4.970;2022-12-11T13:24:16;30.48;;;18.65;;
54171;SDS011;40076;52.354;4.970;2022-12-11T13:26:44;28.67;;;16.58;;
54171;SDS011;40076;52.354;4.970;2022-12-11T13:32:01;26.13;;;14.95;;
54171;SDS011;40076;52.354;4.970;2022-12-11T13:34:35;27.27;;;15.20;;
54171;SDS011;40076;52.354;4.970;2022-12-11T13:37:03;27.05;;;16.17;;
54171;SDS011;40076;52.354;4.970;2022-12-11T13:39:32;23.45;;;14.90;;
54171;SDS011;40076;52.354;4.970;2022-12-11T13:42:03;25.25;;;14.43;;
54171;SDS011;40076;52.354;4.970;2022-12-11T13:44:38;23.23;;;14.57;;
54171;SDS011;40076;52.354;4.970;2022-12-11T13:47:10;27.05;;;14.88;;
54171;SDS011;40076;52.354;4.970;2022-12-11T13:49:38;24.00;;;14.52;;
54171;SDS011;40076;52.354;4.970;2022-12-11T13:52:06;24.85;;;14.57;;
54171;SDS011;40076;52.354;4.970;2022-12-11T13:57:15;34.80;;;20.17;;
54171;SDS011;40076;52.354;4.970;2022-12-11T13:59:48;33.75;;;19.98;;
54171;SDS011;40076;52.354;4.970;2022-12-11T14:02:21;36.45;;;21.50;;
54171;SDS011;40076;52.354;4.970;2022-12-11T14:04:51;47.55;;;24.27;;
54171;SDS011;40076;52.354;4.970;2022-12-11T14:07:25;46.75;;;26.05;;
54171;SDS011;40076;52.354;4.970;2022-12-11T14:09:54;49.92;;;26.08;;
54171;SDS011;40076;52.354;4.970;2022-12-11T14:12:26;49.45;;;26.70;;
54171;SDS011;40076;52.354;4.970;2022-12-11T14:14:53;48.15;;;27.20;;
54171;SDS011;40076;52.354;4.970;2022-12-11T14:17:25;52.25;;;28.38;;
54171;SDS011;40076;52.354;4.970;2022-12-11T14:19:53;46.92;;;26.77;;
54171;SDS011;40076;52.354;4.970;2022-12-11T14:22:22;53.00;;;26.38;;
54171;SDS011;40076;52.354;4.970;2022-12-11T14:24:50;52.50;;;28.17;;
54171;SDS011;40076;52.354;4.970;2022-12-11T14:27:18;50.60;;;28.15;;
54171;SDS011;40076;52.354;4.970;2022-12-11T14:29:44;55.35;;;27.95;;
54171;SDS011;40076;52.354;4.970;2022-12-11T14:32:19;46.03;;;25.85;;
54171;SDS011;40076;52.354;4.970;2022-12-11T14:35:04;54.28;;;27.02;;
54171;SDS011;40076;52.354;4.970;2022-12-11T14:37:34;50.13;;;27.15;;
54171;SDS011;40076;52.354;4.970;2022-12-11T14:42:42;41.75;;;22.08;;
54171;SDS011;40076;52.354;4.970;2022-12-11T14:45:27;53.47;;;26.33;;
54171;SDS011;40076;52.354;4.970;2022-12-11T14:48:00;53.53;;;27.95;;
54171;SDS011;40076;52.354;4.970;2022-12-11T14:53:30;53.50;;;28.77;;
54171;SDS011;40076;52.354;4.970;2022-12-11T14:56:00;50.60;;;27.17;;
54171;SDS011;40076;52.354;4.970;2022-12-11T14:58:29;53.22;;;27.35;;
54171;SDS011;40076;52.354;4.970;2022-12-11T15:00:57;53.03;;;28.80;;
54171;SDS011;40076;52.354;4.970;2022-12-11T15:03:29;50.20;;;27.25;;
54171;SDS011;40076;52.354;4.970;2022-12-11T15:05:57;53.20;;;27.50;;
54171;SDS011;40076;52.354;4.970;2022-12-11T15:08:27;47.92;;;25.92;;
54171;SDS011;40076;52.354;4.970;2022-12-11T15:13:33;57.92;;;28.95;;
54171;SDS011;40076;52.354;4.970;2022-12-11T15:16:03;56.28;;;28.55;;
54171;SDS011;40076;52.354;4.970;2022-12-11T15:18:35;58.50;;;29.20;;
54171;SDS011;40076;52.354;4.970;2022-12-11T15:21:08;42.47;;;21.85;;
54171;SDS011;40076;52.354;4.970;2022-12-11T15:23:39;55.72;;;28.58;;
54171;SDS011;40076;52.354;4.970;2022-12-11T15:26:14;52.13;;;28.00;;
54171;SDS011;40076;52.354;4.970;2022-12-11T15:28:39;51.13;;;28.00;;
54171;SDS011;40076;52.354;4.970;2022-12-11T15:31:06;53.65;;;27.15;;
54171;SDS011;40076;52.354;4.970;2022-12-11T15:33:46;55.65;;;28.05;;
54171;SDS011;40076;52.354;4.970;2022-12-11T15:38:56;52.72;;;26.77;;
54171;SDS011;40076;52.354;4.970;2022-12-11T15:41:22;56.80;;;28.33;;
54171;SDS011;40076;52.354;4.970;2022-12-11T15:43:53;53.30;;;27.73;;
54171;SDS011;40076;52.354;4.970;2022-12-11T15:46:20;57.60;;;27.85;;
54171;SDS011;40076;52.354;4.970;2022-12-11T15:48:49;52.75;;;28.35;;
54171;SDS011;40076;52.354;4.970;2022-12-11T15:51:14;54.03;;;27.13;;
54171;SDS011;40076;52.354;4.970;2022-12-11T15:53:40;56.20;;;28.00;;
54171;SDS011;40076;52.354;4.970;2022-12-11T15:56:08;52.85;;;27.42;;
54171;SDS011;40076;52.354;4.970;2022-12-11T15:58:37;52.05;;;28.10;;
54171;SDS011;40076;52.354;4.970;2022-12-11T16:01:02;58.47;;;27.60;;
54171;SDS011;40076;52.354;4.970;2022-12-11T16:03:28;52.15;;;27.80;;
54171;SDS011;40076;52.354;4.970;2022-12-11T16:05:53;50.13;;;26.58;;
54171;SDS011;40076;52.354;4.970;2022-12-11T16:08:20;54.17;;;27.00;;
54171;SDS011;40076;52.354;4.970;2022-12-11T16:10:47;55.55;;;27.52;;
54171;SDS011;40076;52.354;4.970;2022-12-11T16:13:13;54.03;;;27.52;;
54171;SDS011;40076;52.354;4.970;2022-12-11T16:15:39;54.08;;;28.00;;